createdAt,value
2019-01-08T00:01:15.803Z,4.20
2019-01-08T00:03:45.054Z,4.20
2019-01-08T00:06:14.592Z,4.20
2019-01-08T00:08:43.947Z,4.20
2019-01-08T00:11:13.219Z,4.00
2019-01-08T00:13:42.292Z,4.10
2019-01-08T00:16:11.931Z,4.10
2019-01-08T00:18:41.011Z,4.10
2019-01-08T00:21:10.380Z,4.10
2019-01-08T00:23:39.907Z,4.10
2019-01-08T00:26:09.268Z,4.10
2019-01-08T00:28:43.028Z,4.20
2019-01-08T00:31:09.663Z,4.30
2019-01-08T00:33:38.824Z,4.40
2019-01-08T00:36:07.899Z,4.40
2019-01-08T00:38:36.988Z,4.40
2019-01-08T00:41:06.172Z,4.40
2019-01-08T00:43:35.408Z,4.40
2019-01-08T00:46:04.523Z,4.50
2019-01-08T00:48:33.912Z,4.50
2019-01-08T00:51:03.019Z,4.50
2019-01-08T00:53:32.100Z,4.50
2019-01-08T00:56:01.207Z,4.40
2019-01-08T00:58:30.528Z,4.40
2019-01-08T01:00:59.630Z,4.40
2019-01-08T01:03:28.706Z,4.40
2019-01-08T01:05:58.017Z,4.40
2019-01-08T01:08:27.373Z,4.40
2019-01-08T01:10:56.732Z,4.50
2019-01-08T01:13:25.796Z,4.40
2019-01-08T01:15:55.160Z,4.50
2019-01-08T01:18:24.488Z,4.40
2019-01-08T01:20:53.966Z,4.40
2019-01-08T01:23:23.295Z,4.40
2019-01-08T01:25:52.615Z,4.40
2019-01-08T01:28:21.993Z,4.50
2019-01-08T01:30:51.313Z,4.40
2019-01-08T01:33:20.686Z,4.50
2019-01-08T01:35:49.750Z,4.40
2019-01-08T01:38:19.035Z,4.40
2019-01-08T01:40:48.117Z,4.40
2019-01-08T01:43:17.730Z,4.50
2019-01-08T01:45:46.824Z,4.50
2019-01-08T01:48:16.784Z,4.50
2019-01-08T01:50:45.870Z,4.50
2019-01-08T01:53:14.951Z,4.50
2019-01-08T01:55:44.326Z,4.40
2019-01-08T01:58:13.625Z,4.50
2019-01-08T02:00:43.218Z,4.60
2019-01-08T02:03:12.659Z,4.50
2019-01-08T02:05:42.272Z,4.50
2019-01-08T02:08:11.611Z,4.50
2019-01-08T02:10:41.015Z,4.50
2019-01-08T02:13:10.382Z,4.50
2019-01-08T02:15:39.707Z,4.40
2019-01-08T02:18:08.808Z,4.30
2019-01-08T02:20:37.808Z,4.40
2019-01-08T02:23:06.885Z,4.30
2019-01-08T02:25:35.966Z,4.30
2019-01-08T02:28:05.057Z,4.30
2019-01-08T02:30:34.214Z,4.40
2019-01-08T02:33:03.287Z,4.40
2019-01-08T02:35:32.379Z,4.30
2019-01-08T02:38:01.699Z,4.30
2019-01-08T02:40:30.715Z,4.40
2019-01-08T02:42:59.785Z,4.40
2019-01-08T02:45:29.864Z,4.40
2019-01-08T02:47:59.020Z,4.40
2019-01-08T02:50:28.628Z,4.40
2019-01-08T02:53:06.919Z,4.40
2019-01-08T02:55:36.089Z,4.50
2019-01-08T02:58:05.179Z,4.60
2019-01-08T03:00:34.281Z,4.60
2019-01-08T03:03:03.367Z,4.70
2019-01-08T03:05:32.491Z,4.80
2019-01-08T03:08:02.631Z,4.80
2019-01-08T03:10:31.991Z,4.80
2019-01-08T03:13:01.396Z,4.90
2019-01-08T03:15:30.823Z,4.90
2019-01-08T03:18:00.224Z,5.00
2019-01-08T03:20:29.319Z,4.90
2019-01-08T03:22:58.995Z,5.00
2019-01-08T03:25:28.090Z,5.00
2019-01-08T03:27:57.179Z,5.00
2019-01-08T03:30:26.324Z,5.00
2019-01-08T03:32:55.696Z,5.10
2019-01-08T03:35:24.807Z,5.20
2019-01-08T03:37:53.915Z,5.20
2019-01-08T03:40:22.990Z,5.20
2019-01-08T03:42:52.167Z,5.20
2019-01-08T03:45:21.274Z,5.30
2019-01-08T03:47:50.390Z,5.30
2019-01-08T03:50:20.002Z,5.40
2019-01-08T03:52:49.099Z,5.40
2019-01-08T03:55:18.194Z,5.50
2019-01-08T03:57:47.312Z,5.50
2019-01-08T04:00:16.398Z,5.70
2019-01-08T04:02:45.510Z,5.60
2019-01-08T04:05:14.593Z,5.60
2019-01-08T04:07:44.083Z,5.60
2019-01-08T04:10:13.173Z,5.70
2019-01-08T04:12:42.270Z,5.80
2019-01-08T04:15:11.355Z,5.80
2019-01-08T04:17:40.980Z,5.80
2019-01-08T04:20:10.669Z,5.80
2019-01-08T04:22:40.049Z,5.90
2019-01-08T04:25:09.729Z,5.90
2019-01-08T04:27:38.852Z,6.00
2019-01-08T04:30:10.711Z,6.00
2019-01-08T04:32:40.111Z,6.00
2019-01-08T04:35:09.223Z,6.00
2019-01-08T04:37:38.419Z,6.10
2019-01-08T04:40:07.818Z,6.10
2019-01-08T04:42:37.011Z,6.20
2019-01-08T04:45:06.191Z,6.10
2019-01-08T04:47:35.295Z,6.10
2019-01-08T04:50:04.664Z,6.10
2019-01-08T04:52:33.762Z,6.20
2019-01-08T04:55:02.875Z,6.40
2019-01-08T04:57:32.052Z,6.40
2019-01-08T05:00:02.001Z,6.40
2019-01-08T05:02:31.123Z,6.40
2019-01-08T05:05:00.275Z,6.40
2019-01-08T05:07:29.370Z,6.40
2019-01-08T05:09:58.743Z,6.50
2019-01-08T05:12:28.174Z,6.60
2019-01-08T05:14:57.912Z,6.60
2019-01-08T05:17:27.554Z,6.60
2019-01-08T05:19:57.003Z,6.60
2019-01-08T05:22:26.354Z,6.70
2019-01-08T05:24:55.468Z,6.60
2019-01-08T05:27:25.339Z,6.60
2019-01-08T05:29:54.759Z,6.50
2019-01-08T05:32:23.922Z,6.50
2019-01-08T05:34:53.359Z,6.50
2019-01-08T05:37:22.543Z,6.50
2019-01-08T05:39:51.658Z,6.50
2019-01-08T05:42:21.035Z,6.50
2019-01-08T05:44:50.450Z,6.50
2019-01-08T05:47:19.598Z,6.50
2019-01-08T05:49:48.740Z,6.50
2019-01-08T05:52:17.911Z,6.50
2019-01-08T05:54:47.031Z,6.40
2019-01-08T05:57:16.187Z,6.50
2019-01-08T05:59:45.281Z,6.40
2019-01-08T06:02:15.009Z,6.40
2019-01-08T06:04:44.547Z,6.40
2019-01-08T06:07:13.973Z,6.40
2019-01-08T06:09:43.121Z,6.40
2019-01-08T06:12:12.351Z,6.40
2019-01-08T06:14:41.750Z,6.50
2019-01-08T06:17:11.149Z,6.50
2019-01-08T06:19:40.500Z,6.50
2019-01-08T06:22:09.683Z,6.40
2019-01-08T06:24:38.779Z,6.40
2019-01-08T06:27:07.896Z,6.40
2019-01-08T06:29:37.286Z,6.50
2019-01-08T06:32:06.440Z,6.50
2019-01-08T06:34:35.563Z,6.50
2019-01-08T06:37:04.927Z,6.40
2019-01-08T06:39:34.297Z,6.40
2019-01-08T06:42:03.671Z,6.40
2019-01-08T06:44:33.124Z,6.40
2019-01-08T06:47:02.340Z,6.40
2019-01-08T06:49:31.450Z,6.30
2019-01-08T06:52:00.555Z,6.30
2019-01-08T06:54:29.946Z,6.30
2019-01-08T06:56:59.275Z,6.30
2019-01-08T06:59:28.676Z,6.30
2019-01-08T07:01:57.777Z,6.30
2019-01-08T07:04:26.890Z,6.30
2019-01-08T07:06:56.370Z,6.30
2019-01-08T07:09:25.504Z,6.20
2019-01-08T07:11:54.607Z,6.30
2019-01-08T07:14:24.641Z,6.30
2019-01-08T07:16:53.739Z,6.20
2019-01-08T07:19:22.862Z,6.30
2019-01-08T07:21:51.958Z,6.20
2019-01-08T07:24:21.116Z,6.20
2019-01-08T07:26:50.398Z,6.10
2019-01-08T07:29:19.827Z,6.20
2019-01-08T07:31:48.919Z,6.20
2019-01-08T07:34:18.052Z,6.20
2019-01-08T07:36:47.188Z,6.20
2019-01-08T07:39:16.339Z,6.20
2019-01-08T07:41:46.307Z,6.20
2019-01-08T07:44:15.485Z,6.10
2019-01-08T07:46:44.648Z,6.20
2019-01-08T07:49:13.859Z,6.20
2019-01-08T07:51:43.147Z,6.30
2019-01-08T07:54:12.310Z,6.30
2019-01-08T07:56:41.551Z,6.30
2019-01-08T07:59:11.275Z,6.30
2019-01-08T08:01:45.707Z,6.30
2019-01-08T08:04:15.168Z,6.30
2019-01-08T08:06:48.504Z,6.40
2019-01-08T08:09:17.904Z,6.30
2019-01-08T08:11:47.276Z,6.30
2019-01-08T08:14:16.844Z,6.40
2019-01-08T08:16:48.889Z,6.40
2019-01-08T08:19:18.193Z,6.40
2019-01-08T08:21:47.502Z,6.40
2019-01-08T08:24:17.004Z,6.40
2019-01-08T08:26:46.457Z,6.50
2019-01-08T08:29:15.679Z,6.50
2019-01-08T08:31:44.824Z,6.40
2019-01-08T08:34:16.549Z,6.50
2019-01-08T08:36:46.159Z,6.50
2019-01-08T08:39:15.862Z,6.50
2019-01-08T08:41:45.233Z,6.50
2019-01-08T08:44:14.414Z,6.60
2019-01-08T08:46:43.570Z,6.60
2019-01-08T08:49:13.703Z,6.60
2019-01-08T08:51:43.145Z,6.60
2019-01-08T08:54:12.282Z,6.60
2019-01-08T08:56:41.463Z,6.50
2019-01-08T08:59:10.567Z,6.50
2019-01-08T09:01:39.711Z,6.50
2019-01-08T09:04:09.079Z,6.50
2019-01-08T09:06:38.227Z,6.50
2019-01-08T09:09:07.807Z,6.50
2019-01-08T09:11:36.935Z,6.50
2019-01-08T09:14:06.031Z,6.50
2019-01-08T09:16:35.147Z,6.50
2019-01-08T09:19:04.239Z,6.50
2019-01-08T09:21:33.364Z,6.50
2019-01-08T09:24:02.499Z,6.60
2019-01-08T09:26:31.640Z,6.50
2019-01-08T09:29:01.067Z,6.50
2019-01-08T09:31:30.323Z,6.50
2019-01-08T09:34:02.431Z,6.50
2019-01-08T09:36:31.980Z,6.50
2019-01-08T09:39:01.354Z,6.50
2019-01-08T09:41:30.996Z,6.40
2019-01-08T09:44:00.099Z,6.40
2019-01-08T09:46:29.480Z,6.50
2019-01-08T09:48:58.584Z,6.40
2019-01-08T09:51:27.698Z,6.40
2019-01-08T09:53:56.812Z,6.40
2019-01-08T09:56:26.176Z,6.40
2019-01-08T09:58:55.279Z,6.40
2019-01-08T10:01:24.421Z,6.50
2019-01-08T10:03:56.179Z,6.50
2019-01-08T10:06:25.743Z,6.50
2019-01-08T10:08:55.306Z,6.50
2019-01-08T10:11:24.717Z,6.50
2019-01-08T10:13:53.865Z,6.40
2019-01-08T10:16:22.999Z,6.30
2019-01-08T10:18:52.527Z,6.30
2019-01-08T10:21:26.922Z,6.30
2019-01-08T10:24:10.061Z,6.40
2019-01-08T10:26:39.431Z,6.40
2019-01-08T10:29:08.619Z,6.30
2019-01-08T10:31:37.787Z,6.30
2019-01-08T10:34:07.267Z,6.30
2019-01-08T10:36:36.668Z,6.20
2019-01-08T10:39:08.147Z,6.20
2019-01-08T10:41:41.700Z,6.20
2019-01-08T10:44:11.182Z,6.20
2019-01-08T10:46:47.305Z,6.30
2019-01-08T10:49:16.703Z,6.20
2019-01-08T10:51:45.875Z,6.20
2019-01-08T10:54:15.052Z,6.30
2019-01-08T10:56:44.181Z,6.30
2019-01-08T10:59:13.600Z,6.30
2019-01-08T11:01:42.735Z,6.40
2019-01-08T11:04:11.916Z,6.30
2019-01-08T11:06:41.031Z,6.30
2019-01-08T11:09:10.122Z,6.30
2019-01-08T11:11:39.252Z,6.20
2019-01-08T11:14:08.354Z,6.40
2019-01-08T11:16:37.575Z,6.30
2019-01-08T11:19:06.956Z,6.30
2019-01-08T11:21:36.347Z,6.30
2019-01-08T11:24:05.431Z,6.30
2019-01-08T11:26:34.827Z,6.30
2019-01-08T11:29:03.907Z,6.30
2019-01-08T11:31:48.861Z,6.20
2019-01-08T11:34:12.869Z,6.20
2019-01-08T11:36:42.259Z,6.20
2019-01-08T11:39:11.373Z,6.20
2019-01-08T11:41:40.479Z,6.20
2019-01-08T11:44:09.848Z,6.30
2019-01-08T11:46:38.985Z,6.30
2019-01-08T11:49:08.085Z,6.20
2019-01-08T11:51:37.211Z,6.20
2019-01-08T11:54:06.592Z,6.20
2019-01-08T11:56:36.113Z,6.20
2019-01-08T11:59:05.486Z,6.20
2019-01-08T12:01:34.583Z,6.20
2019-01-08T12:04:03.752Z,6.20
2019-01-08T12:06:33.537Z,6.30
2019-01-08T12:09:04.355Z,6.20
2019-01-08T12:11:34.581Z,6.30
2019-01-08T12:14:03.745Z,6.30
2019-01-08T12:16:32.943Z,6.20
2019-01-08T12:19:02.349Z,6.20
2019-01-08T12:21:31.740Z,6.20
2019-01-08T12:24:01.183Z,6.20
2019-01-08T12:26:30.306Z,6.20
2019-01-08T12:28:59.504Z,6.20
2019-01-08T12:31:28.656Z,6.10
2019-01-08T12:33:58.067Z,6.10
2019-01-08T12:36:27.224Z,6.10
2019-01-08T12:38:56.468Z,6.10
2019-01-08T12:41:25.633Z,6.10
2019-01-08T12:43:55.734Z,6.10
2019-01-08T12:46:28.398Z,6.20
2019-01-08T12:48:57.827Z,6.10
2019-01-08T12:51:27.487Z,6.10
2019-01-08T12:53:56.628Z,6.10
2019-01-08T12:56:25.757Z,6.20
2019-01-08T12:58:55.073Z,6.20
2019-01-08T13:01:24.257Z,6.20
2019-01-08T13:03:53.411Z,6.20
2019-01-08T13:06:22.736Z,6.10
2019-01-08T13:08:52.512Z,6.20
2019-01-08T13:11:21.679Z,6.20
2019-01-08T13:13:50.911Z,6.30
2019-01-08T13:16:20.014Z,6.30
2019-01-08T13:18:49.387Z,6.20
2019-01-08T13:21:18.614Z,6.20
2019-01-08T13:23:47.900Z,6.30
2019-01-08T13:26:17.023Z,6.30
2019-01-08T13:28:46.432Z,6.30
2019-01-08T13:31:15.551Z,6.40
2019-01-08T13:33:44.699Z,6.40
2019-01-08T13:36:14.061Z,6.40
2019-01-08T13:38:43.220Z,6.40
2019-01-08T13:41:12.619Z,6.40
2019-01-08T13:43:41.766Z,6.40
2019-01-08T13:46:11.160Z,6.50
2019-01-08T13:48:40.560Z,6.50
2019-01-08T13:51:09.697Z,6.50
2019-01-08T13:53:39.097Z,6.40
2019-01-08T13:56:08.311Z,6.50
2019-01-08T13:58:37.409Z,6.50
2019-01-08T14:01:06.507Z,6.50
2019-01-08T14:03:35.954Z,6.40
2019-01-08T14:06:05.087Z,6.40
2019-01-08T14:08:34.251Z,6.50
2019-01-08T14:11:03.371Z,6.50
2019-01-08T14:13:32.503Z,6.40
2019-01-08T14:16:01.608Z,6.30
2019-01-08T14:18:30.743Z,6.30
2019-01-08T14:21:00.091Z,6.30
2019-01-08T14:23:29.206Z,6.30
2019-01-08T14:25:58.296Z,6.40
2019-01-08T14:28:27.411Z,6.30
2019-01-08T14:30:56.773Z,6.30
2019-01-08T14:33:25.864Z,6.30
2019-01-08T14:35:55.000Z,6.30
2019-01-08T14:38:24.169Z,6.30
2019-01-08T14:40:53.293Z,6.30
2019-01-08T14:43:22.422Z,6.30
2019-01-08T14:45:51.513Z,6.20
2019-01-08T14:48:20.895Z,6.20
2019-01-08T14:50:49.982Z,6.20
2019-01-08T14:53:19.074Z,6.20
2019-01-08T14:55:48.220Z,6.20
2019-01-08T14:58:17.599Z,6.20
2019-01-08T15:00:46.725Z,6.20
2019-01-08T15:03:15.852Z,6.30
2019-01-08T15:05:45.051Z,6.30
2019-01-08T15:08:14.495Z,6.40
2019-01-08T15:10:44.020Z,6.50
2019-01-08T15:13:13.156Z,6.40
2019-01-08T15:15:42.327Z,6.50
2019-01-08T15:18:11.458Z,6.50
2019-01-08T15:20:40.804Z,6.50
2019-01-08T15:23:09.898Z,6.50
2019-01-08T15:25:39.318Z,6.50
2019-01-08T15:28:08.410Z,6.50
2019-01-08T15:30:37.559Z,6.60
2019-01-08T15:33:06.974Z,6.50
2019-01-08T15:35:36.643Z,6.50
2019-01-08T15:38:06.330Z,6.40
2019-01-08T15:40:35.788Z,6.40
2019-01-08T15:43:04.926Z,6.40
2019-01-08T15:45:34.295Z,6.40
2019-01-08T15:48:05.269Z,6.30
2019-01-08T15:50:34.242Z,6.30
2019-01-08T15:53:03.633Z,6.40
2019-01-08T15:55:33.062Z,6.30
2019-01-08T15:58:02.464Z,6.20
2019-01-08T16:00:31.642Z,6.10
2019-01-08T16:03:07.145Z,6.10
2019-01-08T16:05:31.611Z,6.10
2019-01-08T16:08:00.758Z,6.20
2019-01-08T16:10:29.863Z,6.10
2019-01-08T16:12:58.988Z,6.10
2019-01-08T16:15:28.164Z,6.10
2019-01-08T16:17:57.905Z,6.00
2019-01-08T16:20:27.514Z,6.00
2019-01-08T16:22:56.707Z,6.00
2019-01-08T16:25:26.108Z,6.00
2019-01-08T16:27:55.231Z,6.00
2019-01-08T16:30:27.929Z,6.00
2019-01-08T16:32:57.043Z,6.00
2019-01-08T16:35:26.210Z,6.00
2019-01-08T16:37:55.533Z,6.00
2019-01-08T16:40:27.396Z,6.00
2019-01-08T16:43:03.506Z,6.10
2019-01-08T16:45:32.919Z,6.10
2019-01-08T16:48:21.462Z,6.20
2019-01-08T16:50:51.984Z,6.10
2019-01-08T16:53:21.360Z,6.10
2019-01-08T16:55:50.631Z,6.10
2019-01-08T16:58:30.652Z,6.10
2019-01-08T17:01:03.514Z,6.10
2019-01-08T17:03:35.391Z,6.10
2019-01-08T17:06:13.656Z,6.10
2019-01-08T17:08:45.760Z,6.10
2019-01-08T17:11:17.180Z,6.20
2019-01-08T17:14:09.272Z,6.10
2019-01-08T17:16:39.287Z,6.20
2019-01-08T17:19:09.066Z,6.10
2019-01-08T17:21:38.401Z,6.10
2019-01-08T17:24:07.588Z,6.10
2019-01-08T17:26:37.539Z,6.00
2019-01-08T17:29:20.425Z,6.00
2019-01-08T17:32:02.757Z,6.00
2019-01-08T17:34:38.172Z,6.00
2019-01-08T17:37:10.805Z,6.10
2019-01-08T17:39:40.144Z,6.20
2019-01-08T17:42:09.264Z,6.20
2019-01-08T17:44:38.375Z,6.20
2019-01-08T17:47:07.574Z,6.10
2019-01-08T17:49:36.935Z,6.00
2019-01-08T17:52:06.414Z,6.00
2019-01-08T17:54:35.566Z,5.90
2019-01-08T17:57:04.706Z,5.80
2019-01-08T17:59:33.877Z,5.70
2019-01-08T18:02:06.873Z,5.60
2019-01-08T18:04:36.159Z,5.50
2019-01-08T18:07:05.559Z,5.50
2019-01-08T18:09:34.699Z,5.40
2019-01-08T18:12:03.890Z,5.40
2019-01-08T18:14:33.395Z,5.50
2019-01-08T18:17:02.830Z,5.50
2019-01-08T18:19:32.001Z,5.40
2019-01-08T18:22:01.399Z,5.50
2019-01-08T18:24:30.589Z,5.40
2019-01-08T18:27:00.155Z,5.40
2019-01-08T18:29:29.575Z,5.40
2019-01-08T18:31:58.933Z,5.50
2019-01-08T18:34:28.348Z,5.50
2019-01-08T18:36:57.691Z,5.50
2019-01-08T18:39:26.850Z,5.50
2019-01-08T18:41:55.969Z,5.50
2019-01-08T18:44:25.773Z,5.60
2019-01-08T18:46:55.220Z,5.60
2019-01-08T18:49:24.644Z,5.70
2019-01-08T18:51:54.410Z,5.70
2019-01-08T18:54:23.845Z,5.70
2019-01-08T18:56:53.218Z,5.70
2019-01-08T18:59:22.359Z,5.80
2019-01-08T19:01:51.479Z,5.80
2019-01-08T19:04:20.659Z,5.80
2019-01-08T19:06:49.843Z,5.80
2019-01-08T19:09:33.624Z,5.80
2019-01-08T19:12:02.779Z,5.80
2019-01-08T19:14:34.991Z,5.80
2019-01-08T19:17:04.107Z,5.80
2019-01-08T19:19:33.519Z,5.80
2019-01-08T19:22:02.628Z,5.80
2019-01-08T19:24:31.858Z,5.80
2019-01-08T19:27:01.050Z,5.80
2019-01-08T19:29:30.540Z,5.70
2019-01-08T19:31:59.640Z,5.80
2019-01-08T19:34:28.793Z,5.80
2019-01-08T19:36:57.896Z,5.80
2019-01-08T19:39:27.152Z,5.80
2019-01-08T19:41:56.308Z,5.90
2019-01-08T19:44:25.472Z,5.80
2019-01-08T19:46:54.598Z,5.80
2019-01-08T19:49:23.751Z,5.90
2019-01-08T19:51:52.879Z,5.90
2019-01-08T19:54:22.303Z,5.90
2019-01-08T19:56:52.130Z,5.90
2019-01-08T19:59:21.372Z,5.90
2019-01-08T20:01:50.483Z,6.00
2019-01-08T20:04:19.660Z,6.00
2019-01-08T20:06:49.380Z,6.00
2019-01-08T20:09:25.121Z,5.90
2019-01-08T20:11:49.748Z,5.90
2019-01-08T20:14:20.139Z,5.90
2019-01-08T20:16:49.551Z,5.80
2019-01-08T20:19:18.958Z,5.90
2019-01-08T20:21:48.071Z,5.90
2019-01-08T20:24:17.555Z,5.80
2019-01-08T20:26:46.928Z,5.80
2019-01-08T20:29:16.062Z,5.80
2019-01-08T20:31:45.150Z,5.80
2019-01-08T20:34:14.670Z,5.70
2019-01-08T20:36:44.637Z,5.70
2019-01-08T20:39:14.525Z,5.70
2019-01-08T20:41:44.153Z,5.70
2019-01-08T20:44:13.296Z,5.60
2019-01-08T20:46:42.391Z,5.60
2019-01-08T20:49:11.693Z,5.60
2019-01-08T20:51:41.111Z,5.50
2019-01-08T20:54:10.250Z,5.60
2019-01-08T20:56:39.461Z,5.60
2019-01-08T20:59:08.922Z,5.60
2019-01-08T21:01:38.373Z,5.60
2019-01-08T21:04:07.911Z,5.60
2019-01-08T21:06:37.101Z,5.50
2019-01-08T21:09:08.176Z,5.50
2019-01-08T21:11:37.673Z,5.60
2019-01-08T21:14:06.870Z,5.60
2019-01-08T21:16:36.060Z,5.60
2019-01-08T21:19:05.223Z,5.50
2019-01-08T21:21:34.654Z,5.50
2019-01-08T21:24:04.187Z,5.50
2019-01-08T21:26:33.291Z,5.50
2019-01-08T21:29:03.091Z,5.40
2019-01-08T21:31:32.533Z,5.40
2019-01-08T21:34:02.006Z,5.30
2019-01-08T21:36:31.414Z,5.40
2019-01-08T21:39:00.860Z,5.40
2019-01-08T21:41:29.958Z,5.30
2019-01-08T21:43:59.843Z,5.40
2019-01-08T21:46:29.241Z,5.40
2019-01-08T21:48:58.359Z,5.30
2019-01-08T21:51:27.471Z,5.30
2019-01-08T21:53:56.967Z,5.30
2019-01-08T21:56:26.168Z,5.30
2019-01-08T21:58:55.559Z,5.30
2019-01-08T22:01:25.331Z,5.40
2019-01-08T22:03:54.516Z,5.40
2019-01-08T22:06:24.194Z,5.40
2019-01-08T22:08:53.324Z,5.30
2019-01-08T22:11:22.851Z,5.40
2019-01-08T22:13:52.192Z,5.30
2019-01-08T22:16:21.323Z,5.40
2019-01-08T22:18:50.717Z,5.40
2019-01-08T22:21:20.626Z,5.50
2019-01-08T22:23:49.840Z,5.40
2019-01-08T22:26:18.976Z,5.40
2019-01-08T22:28:48.142Z,5.50
2019-01-08T22:31:17.271Z,5.50
2019-01-08T22:33:46.729Z,5.50
2019-01-08T22:36:15.846Z,5.50
2019-01-08T22:38:44.943Z,5.50
2019-01-08T22:41:14.338Z,5.40
2019-01-08T22:43:43.741Z,5.40
2019-01-08T22:46:12.850Z,5.50
2019-01-08T22:48:42.255Z,5.50
2019-01-08T22:51:11.370Z,5.40
2019-01-08T22:53:40.559Z,5.30
2019-01-08T22:56:10.608Z,5.50
2019-01-08T22:58:39.699Z,5.50
2019-01-08T23:01:43.376Z,5.40
2019-01-08T23:04:14.171Z,5.40
2019-01-08T23:06:43.296Z,5.40
2019-01-08T23:09:12.392Z,5.40
2019-01-08T23:11:41.976Z,5.50
2019-01-08T23:14:11.142Z,5.50
2019-01-08T23:16:40.620Z,5.40
2019-01-08T23:19:09.798Z,5.50
2019-01-08T23:21:40.139Z,5.40
2019-01-08T23:24:09.291Z,5.40
2019-01-08T23:26:38.421Z,5.50
2019-01-08T23:29:07.530Z,5.40
2019-01-08T23:31:36.647Z,5.40
2019-01-08T23:34:05.736Z,5.30
2019-01-08T23:36:34.858Z,5.40
2019-01-08T23:39:05.014Z,5.50
2019-01-08T23:41:34.191Z,5.50
2019-01-08T23:44:03.545Z,5.60
2019-01-08T23:46:32.923Z,5.50
2019-01-08T23:49:02.015Z,5.50
2019-01-08T23:51:31.692Z,5.50
2019-01-08T23:54:01.883Z,5.50
2019-01-08T23:56:33.314Z,5.60
2019-01-08T23:59:02.412Z,5.60
